Terminal Aerodrome Forecast
Issued by NWS Upton, NY

Home | Current Version | Previous Version | Text Only | Print | Product List | Glossary On
Versions: 1 2 3 4 5 6 7 8 9 10 11 12 13 14 15 16 17 18 19 20 21 22 23 24 25 26 27 28 29 30 31 32
000
FTUS41 KOKX 310139 AAD
TAFLGA
TAF AMD
KLGA 310139Z 3102/3124 27011KT P6SM SCT050 BKN100
      TEMPO 3102/3103 29013G30KT -SHRA BKN050 BKN100
     FM310500 28009KT P6SM SKC
     FM311500 26008KT P6SM SCT040 SCT150
     FM311800 22005KT P6SM SCT040 BKN100
     FM312000 05005KT 5SM -RA BR BKN015 OVC050=

USA.gov is the U.S. government's official web portal to all federal, state and local government web resources and services.